createdAt,value
2022-10-11T00:01:31.062Z,2.60
2022-10-11T00:04:01.593Z,3.33
2022-10-11T00:06:39.030Z,2.60
2022-10-11T00:09:10.091Z,2.40
2022-10-11T00:11:49.442Z,1.93
2022-10-11T00:14:19.765Z,2.53
2022-10-11T00:16:49.909Z,2.70
2022-10-11T00:19:29.483Z,3.00
2022-10-11T00:22:02.169Z,2.83
2022-10-11T00:24:34.967Z,2.53
2022-10-11T00:27:12.420Z,3.80
2022-10-11T00:29:42.537Z,4.20
2022-10-11T00:32:18.021Z,3.63
2022-10-11T00:34:51.991Z,3.63
2022-10-11T00:40:17.661Z,3.03
2022-10-11T00:42:48.373Z,3.70
2022-10-11T00:45:55.602Z,3.00
2022-10-11T00:48:33.447Z,3.40
2022-10-11T00:51:09.888Z,3.03
2022-10-11T00:53:46.771Z,3.83
2022-10-11T00:56:26.149Z,2.63
2022-10-11T00:59:08.681Z,3.13
2022-10-11T01:01:44.447Z,3.00
2022-10-11T01:04:14.691Z,2.40
2022-10-11T01:06:48.992Z,2.87
2022-10-11T01:09:23.751Z,3.10
2022-10-11T01:11:57.382Z,2.80
2022-10-11T01:15:05.340Z,2.80
2022-10-11T01:17:49.161Z,2.80
2022-10-11T01:20:46.085Z,2.17
2022-10-11T01:24:08.407Z,3.37
2022-10-11T01:27:32.573Z,2.90
2022-10-11T01:30:23.255Z,3.13
2022-10-11T01:33:12.258Z,2.80
2022-10-11T01:35:59.838Z,3.37
2022-10-11T01:38:40.773Z,3.37
2022-10-11T01:41:19.376Z,2.70
2022-10-11T01:43:51.245Z,2.57
2022-10-11T01:46:27.892Z,3.17
2022-10-11T01:49:07.810Z,3.00
2022-10-11T01:51:47.310Z,2.80
2022-10-11T01:55:08.291Z,3.10
2022-10-11T01:58:13.796Z,3.17
2022-10-11T02:00:57.900Z,2.87
2022-10-11T02:03:51.141Z,2.70
2022-10-11T02:06:31.888Z,2.93
2022-10-11T02:09:15.172Z,2.70
2022-10-11T02:11:54.319Z,2.43
2022-10-11T02:14:36.958Z,2.43
2022-10-11T02:17:16.883Z,2.87
2022-10-11T02:19:55.538Z,2.63
2022-10-11T02:22:39.035Z,2.20
2022-10-11T02:25:20.315Z,2.87
2022-10-11T02:27:55.923Z,2.77
2022-10-11T02:30:26.893Z,2.07
2022-10-11T02:33:00.611Z,2.40
2022-10-11T02:35:44.808Z,2.57
2022-10-11T02:38:32.068Z,2.53
2022-10-11T02:41:11.651Z,2.50
2022-10-11T02:43:49.351Z,2.87
2022-10-11T02:46:20.810Z,2.83
2022-10-11T02:49:01.576Z,2.87
2022-10-11T02:51:39.215Z,3.20
2022-10-11T02:54:09.956Z,3.30
2022-10-11T02:56:39.983Z,2.87
2022-10-11T02:59:12.498Z,2.70
2022-10-11T03:01:42.587Z,3.10
2022-10-11T03:04:13.323Z,3.53
2022-10-11T03:06:48.367Z,3.20
2022-10-11T03:09:18.529Z,3.10
2022-10-11T03:11:50.041Z,2.47
2022-10-11T03:14:20.562Z,3.33
2022-10-11T03:16:51.633Z,2.73
2022-10-11T03:19:24.932Z,2.57
2022-10-11T03:21:59.856Z,2.90
2022-10-11T03:24:37.144Z,3.00
2022-10-11T03:27:07.421Z,2.13
2022-10-11T03:29:37.507Z,2.30
2022-10-11T03:32:10.915Z,2.33
2022-10-11T03:34:41.155Z,2.53
2022-10-11T03:37:14.176Z,2.27
2022-10-11T03:39:45.744Z,2.40
2022-10-11T03:42:17.463Z,2.77
2022-10-11T03:44:49.559Z,2.27
2022-10-11T03:47:19.937Z,2.30
2022-10-11T03:49:50.144Z,4.33
2022-10-11T03:52:25.526Z,9.50
2022-10-11T03:54:56.872Z,7.77
2022-10-11T03:57:28.279Z,5.10
2022-10-11T04:02:58.291Z,3.77
2022-10-11T04:05:31.856Z,3.43
2022-10-11T04:08:07.387Z,2.87
2022-10-11T04:10:45.177Z,2.60
2022-10-11T04:13:15.403Z,2.90
2022-10-11T04:15:45.552Z,3.20
2022-10-11T04:18:18.638Z,2.37
2022-10-11T04:20:51.163Z,2.90
2022-10-11T04:23:29.533Z,2.80
2022-10-11T04:26:00.071Z,2.63
2022-10-11T04:28:33.909Z,3.17
2022-10-11T04:31:05.093Z,3.07
2022-10-11T04:33:35.901Z,2.90
2022-10-11T04:36:09.556Z,3.40
2022-10-11T04:38:48.307Z,3.17
2022-10-11T04:41:19.607Z,3.73
2022-10-11T04:43:50.333Z,2.73
2022-10-11T04:46:20.591Z,3.33
2022-10-11T04:48:51.003Z,2.83
2022-10-11T04:51:21.423Z,3.40
2022-10-11T04:53:54.392Z,2.73
2022-10-11T04:56:24.642Z,3.10
2022-10-11T04:58:54.851Z,3.47
2022-10-11T05:01:25.384Z,3.57
2022-10-11T05:03:58.462Z,4.03
2022-10-11T05:06:28.596Z,3.83
2022-10-11T05:09:01.277Z,3.77
2022-10-11T05:11:31.810Z,3.90
2022-10-11T05:14:02.317Z,3.73
2022-10-11T05:16:32.861Z,4.27
2022-10-11T05:19:03.296Z,3.70
2022-10-11T05:21:36.688Z,4.43
2022-10-11T05:24:10.783Z,4.70
2022-10-11T05:26:41.125Z,4.23
2022-10-11T05:29:11.626Z,3.47
2022-10-11T05:31:44.571Z,3.20
2022-10-11T05:34:14.721Z,5.80
2022-10-11T05:36:45.079Z,5.27
2022-10-11T05:39:17.973Z,4.73
2022-10-11T05:41:54.616Z,5.27
2022-10-11T05:44:24.850Z,4.30
2022-10-11T05:46:55.598Z,3.90
2022-10-11T05:49:28.020Z,4.40
2022-10-11T05:51:58.386Z,4.60
2022-10-11T05:54:35.408Z,4.40
2022-10-11T05:57:05.485Z,3.87
2022-10-11T05:59:38.659Z,4.17
2022-10-11T06:02:14.451Z,4.50
2022-10-11T06:04:50.843Z,4.43
2022-10-11T06:07:24.157Z,4.57
2022-10-11T06:09:57.071Z,4.70
2022-10-11T06:12:27.270Z,4.20
2022-10-11T06:15:00.964Z,4.40
2022-10-11T06:17:31.427Z,3.60
2022-10-11T06:20:04.830Z,4.10
2022-10-11T06:22:34.980Z,3.83
2022-10-11T06:25:11.733Z,3.53
2022-10-11T06:27:42.463Z,4.20
2022-10-11T06:30:16.207Z,4.70
2022-10-11T06:32:46.432Z,4.47
2022-10-11T06:35:19.935Z,3.80
2022-10-11T06:37:53.453Z,3.80
2022-10-11T06:40:26.931Z,4.73
2022-10-11T06:42:57.050Z,5.53
2022-10-11T06:45:33.131Z,9.77
2022-10-11T06:48:05.680Z,7.07
2022-10-11T06:50:59.109Z,5.43
2022-10-11T06:53:38.739Z,4.67
2022-10-11T06:56:14.079Z,4.53
2022-10-11T06:58:47.558Z,4.80
2022-10-11T07:01:21.403Z,4.63
2022-10-11T07:03:53.189Z,4.47
2022-10-11T07:06:34.066Z,4.33
2022-10-11T07:09:04.723Z,3.83
2022-10-11T07:11:38.900Z,4.63
2022-10-11T07:14:10.797Z,4.20
2022-10-11T07:16:41.251Z,4.97
2022-10-11T07:19:12.584Z,5.07
2022-10-11T07:21:42.828Z,4.27
2022-10-11T07:24:13.154Z,4.40
2022-10-11T07:26:46.318Z,5.20
2022-10-11T07:29:16.714Z,4.90
2022-10-11T07:31:53.358Z,4.60
2022-10-11T07:34:23.689Z,5.05
2022-10-11T07:36:53.990Z,6.30
2022-10-11T07:39:24.178Z,6.20
2022-10-11T07:41:57.080Z,6.75
2022-10-11T07:44:27.365Z,6.35
2022-10-11T07:46:57.775Z,5.95
2022-10-11T07:49:28.029Z,7.07
2022-10-11T07:51:58.405Z,8.23
2022-10-11T07:54:28.508Z,7.72
2022-10-11T07:57:03.818Z,6.60
2022-10-11T07:59:34.116Z,8.05
2022-10-11T08:02:04.202Z,8.27
2022-10-11T08:04:34.336Z,6.63
2022-10-11T08:07:04.415Z,6.68
2022-10-11T08:09:34.861Z,6.25
2022-10-11T08:12:07.844Z,6.57
2022-10-11T08:14:37.928Z,19.40
2022-10-11T08:17:08.005Z,10.32
2022-10-11T08:19:38.202Z,15.23
2022-10-11T08:22:08.320Z,12.27
2022-10-11T08:24:41.051Z,7.45
2022-10-11T08:27:16.065Z,7.70
2022-10-11T08:29:46.144Z,7.88
2022-10-11T08:32:16.788Z,7.80
2022-10-11T08:34:46.880Z,6.70
2022-10-11T08:37:16.952Z,8.57
2022-10-11T08:39:47.059Z,9.50
2022-10-11T08:42:35.588Z,9.70
2022-10-11T08:45:12.519Z,11.23
2022-10-11T08:47:47.371Z,12.65
2022-10-11T08:50:22.919Z,14.05
2022-10-11T08:53:00.348Z,14.13
2022-10-11T08:55:45.038Z,17.45
2022-10-11T08:58:24.487Z,16.13
2022-10-11T09:00:59.475Z,17.60
2022-10-11T09:03:45.027Z,19.67
2022-10-11T09:06:28.021Z,20.05
2022-10-11T09:09:36.951Z,21.05
2022-10-11T09:12:21.048Z,19.42
2022-10-11T09:15:17.196Z,17.85
2022-10-11T09:18:29.872Z,20.17
2022-10-11T09:21:22.590Z,21.02
2022-10-11T09:24:30.364Z,21.40
2022-10-11T09:27:08.219Z,18.98
2022-10-11T09:30:03.081Z,20.88
2022-10-11T09:32:40.376Z,19.33
2022-10-11T09:35:17.689Z,19.50
2022-10-11T09:38:00.679Z,19.08
2022-10-11T09:41:00.219Z,16.65
2022-10-11T09:43:30.879Z,13.45
2022-10-11T09:46:06.808Z,17.00
2022-10-11T09:48:44.775Z,16.95
2022-10-11T09:51:23.686Z,15.77
2022-10-11T09:53:59.152Z,14.52
2022-10-11T09:56:33.471Z,14.20
2022-10-11T09:59:32.864Z,13.27
2022-10-11T10:02:27.408Z,11.52
2022-10-11T10:05:17.555Z,11.13
2022-10-11T10:08:27.931Z,10.98
2022-10-11T10:11:05.301Z,12.80
2022-10-11T10:13:47.928Z,12.55
2022-10-11T10:16:28.767Z,12.43
2022-10-11T10:19:10.167Z,9.63
2022-10-11T10:21:49.402Z,10.10
2022-10-11T10:24:30.394Z,9.10
2022-10-11T10:27:21.852Z,9.93
2022-10-11T10:30:18.636Z,8.98
2022-10-11T10:32:58.831Z,9.45
2022-10-11T10:35:40.447Z,8.35
2022-10-11T10:38:21.705Z,9.27
2022-10-11T10:40:58.360Z,9.27
2022-10-11T10:43:37.072Z,9.07
2022-10-11T10:46:28.499Z,8.70
2022-10-11T10:49:34.857Z,8.82
2022-10-11T10:52:49.628Z,10.82
2022-10-11T10:55:31.112Z,9.07
2022-10-11T10:58:39.210Z,12.43
2022-10-11T11:01:19.674Z,8.73
2022-10-11T11:03:59.720Z,15.27
2022-10-11T11:06:45.322Z,12.65
2022-10-11T11:09:50.289Z,10.18
2022-10-11T11:12:42.982Z,8.32
2022-10-11T11:15:34.279Z,9.32
2022-10-11T11:18:29.549Z,8.40
2022-10-11T11:21:26.943Z,7.65
2022-10-11T11:24:14.236Z,7.60
2022-10-11T11:27:04.345Z,7.15
2022-10-11T11:29:55.896Z,9.18
2022-10-11T11:32:45.914Z,6.18
2022-10-11T11:35:30.468Z,8.05
2022-10-11T11:38:12.810Z,7.57
2022-10-11T11:40:49.980Z,6.28
2022-10-11T11:43:36.595Z,7.68
2022-10-11T11:46:15.909Z,7.07
2022-10-11T11:48:57.428Z,6.00
2022-10-11T11:51:35.273Z,6.93
2022-10-11T11:54:22.981Z,6.45
2022-10-11T11:57:07.058Z,6.43
2022-10-11T11:59:48.701Z,4.30
2022-10-11T12:02:48.289Z,4.15
2022-10-11T12:05:22.220Z,4.38
2022-10-11T12:08:02.096Z,4.05
2022-10-11T12:10:39.968Z,2.85
2022-10-11T12:13:29.734Z,4.20
2022-10-11T12:16:13.847Z,6.32
2022-10-11T12:19:04.665Z,5.70
2022-10-11T12:21:41.363Z,5.78
2022-10-11T12:24:18.563Z,5.95
2022-10-11T12:26:53.039Z,5.22
2022-10-11T12:29:45.695Z,5.10
2022-10-11T12:32:55.134Z,4.30
2022-10-11T12:35:54.072Z,3.60
2022-10-11T12:38:31.308Z,3.22
2022-10-11T12:41:25.116Z,4.32
2022-10-11T12:44:16.063Z,4.55
2022-10-11T12:47:19.433Z,4.03
2022-10-11T12:50:18.487Z,2.88
2022-10-11T12:53:06.563Z,3.25
2022-10-11T12:55:56.080Z,3.50
2022-10-11T12:58:38.360Z,24.00
2022-10-11T13:01:36.021Z,4.18
2022-10-11T13:04:18.500Z,11.70
2022-10-11T13:06:57.237Z,9.70
2022-10-11T13:09:39.599Z,2.65
2022-10-11T13:12:27.635Z,3.53
2022-10-11T13:15:07.568Z,4.22
2022-10-11T13:17:43.503Z,3.15
2022-10-11T13:20:22.793Z,4.00
2022-10-11T13:22:59.759Z,3.63
2022-10-11T13:25:38.761Z,3.20
2022-10-11T13:28:12.927Z,3.45
2022-10-11T13:30:50.295Z,3.30
2022-10-11T13:33:32.202Z,5.35
2022-10-11T13:36:05.596Z,3.13
2022-10-11T13:38:40.942Z,3.78
2022-10-11T13:41:20.353Z,6.07
2022-10-11T13:43:51.741Z,3.53
2022-10-11T13:46:26.313Z,3.75
2022-10-11T13:49:06.880Z,11.23
2022-10-11T13:51:39.895Z,3.72
2022-10-11T13:54:15.866Z,5.85
2022-10-11T13:56:52.464Z,2.40
2022-10-11T13:59:28.175Z,3.45
2022-10-11T14:02:04.574Z,3.50
2022-10-11T14:04:46.576Z,3.65
2022-10-11T14:07:32.980Z,4.03
2022-10-11T14:10:07.028Z,2.83
2022-10-11T14:12:44.375Z,3.35
2022-10-11T14:15:30.945Z,3.38
2022-10-11T14:18:25.512Z,3.25
2022-10-11T14:20:55.733Z,3.60
2022-10-11T14:23:25.812Z,3.42
2022-10-11T14:26:06.400Z,3.13
2022-10-11T14:28:37.200Z,4.53
2022-10-11T14:31:08.730Z,3.67
2022-10-11T14:33:41.944Z,3.67
2022-10-11T14:36:12.650Z,3.30
2022-10-11T14:38:52.414Z,3.38
2022-10-11T14:41:27.367Z,2.78
2022-10-11T14:43:58.018Z,3.65
2022-10-11T14:46:30.201Z,3.33
2022-10-11T14:49:03.742Z,3.58
2022-10-11T14:51:38.031Z,3.22
2022-10-11T14:54:12.312Z,3.42
2022-10-11T14:56:47.390Z,3.33
2022-10-11T14:59:21.006Z,3.88
2022-10-11T15:01:52.117Z,3.47
2022-10-11T15:04:22.926Z,2.90
2022-10-11T15:06:55.210Z,3.17
2022-10-11T15:09:26.337Z,3.67
2022-10-11T15:12:00.280Z,3.38
2022-10-11T15:14:30.452Z,3.10
2022-10-11T15:17:00.691Z,3.00
2022-10-11T15:19:31.397Z,3.17
2022-10-11T15:22:02.813Z,3.33
2022-10-11T15:24:38.113Z,3.30
2022-10-11T15:27:10.870Z,2.72
2022-10-11T15:29:48.599Z,2.95
2022-10-11T15:32:18.745Z,2.85
2022-10-11T15:34:52.599Z,2.63
2022-10-11T15:37:22.764Z,3.20
2022-10-11T15:39:55.756Z,3.38
2022-10-11T15:42:31.476Z,2.80
2022-10-11T15:45:01.675Z,3.25
2022-10-11T15:47:31.788Z,3.17
2022-10-11T15:50:04.320Z,2.92
2022-10-11T15:52:43.413Z,2.90
2022-10-11T15:55:16.491Z,3.22
2022-10-11T15:57:49.331Z,2.95
2022-10-11T16:00:22.356Z,2.83
2022-10-11T16:02:54.747Z,2.80
2022-10-11T16:05:34.586Z,3.10
2022-10-11T16:08:04.718Z,3.40
2022-10-11T16:10:38.089Z,3.55
2022-10-11T16:13:13.939Z,2.67
2022-10-11T16:15:48.981Z,3.40
2022-10-11T16:18:22.971Z,3.55
2022-10-11T16:20:54.372Z,2.53
2022-10-11T16:23:25.710Z,3.08
2022-10-11T16:26:08.349Z,3.13
2022-10-11T16:28:42.668Z,3.25
2022-10-11T16:31:21.197Z,2.72
2022-10-11T16:33:52.987Z,3.40
2022-10-11T16:36:36.429Z,2.97
2022-10-11T16:39:10.968Z,7.38
2022-10-11T16:41:41.915Z,7.18
2022-10-11T16:44:19.027Z,13.25
2022-10-11T16:46:51.946Z,10.10
2022-10-11T16:49:25.018Z,5.32
2022-10-11T16:51:59.200Z,8.27
2022-10-11T16:54:30.514Z,12.25
2022-10-11T16:57:03.902Z,11.00
2022-10-11T16:59:39.510Z,7.10
2022-10-11T17:02:11.137Z,13.95
2022-10-11T17:04:44.306Z,14.82
2022-10-11T17:07:14.883Z,18.70
2022-10-11T17:09:48.627Z,17.77
2022-10-11T17:12:21.815Z,17.75
2022-10-11T17:14:54.832Z,24.58
2022-10-11T17:17:25.030Z,11.40
2022-10-11T17:19:55.255Z,11.38
2022-10-11T17:22:26.004Z,12.32
2022-10-11T17:24:56.142Z,12.18
2022-10-11T17:27:26.956Z,8.25
2022-10-11T17:29:59.958Z,6.90
2022-10-11T17:32:30.062Z,8.20
2022-10-11T17:35:02.260Z,7.37
2022-10-11T17:37:32.480Z,6.70
2022-10-11T17:40:02.778Z,5.50
2022-10-11T17:42:33.037Z,5.50
2022-10-11T17:45:06.093Z,5.37
2022-10-11T17:47:36.347Z,5.03
2022-10-11T17:50:07.024Z,5.17
2022-10-11T17:52:37.250Z,5.30
2022-10-11T17:55:08.104Z,5.57
2022-10-11T17:57:38.197Z,5.93
2022-10-11T18:00:13.737Z,5.27
2022-10-11T18:02:43.915Z,5.83
2022-10-11T18:05:14.761Z,20.93
2022-10-11T18:07:44.805Z,39.03
2022-10-11T18:10:14.891Z,30.00
2022-10-11T18:12:44.912Z,28.87
2022-10-11T18:15:18.530Z,26.27
2022-10-11T18:17:49.114Z,22.63
2022-10-11T18:20:19.556Z,14.87
2022-10-11T18:22:50.010Z,11.90
2022-10-11T18:25:23.025Z,11.17
2022-10-11T18:27:54.568Z,9.63
2022-10-11T18:30:27.479Z,7.83
2022-10-11T18:33:03.540Z,8.70
2022-10-11T18:35:33.691Z,9.07
2022-10-11T18:38:06.443Z,17.70
2022-10-11T18:40:46.155Z,24.87
2022-10-11T18:43:17.318Z,25.63
2022-10-11T18:45:50.097Z,24.77
2022-10-11T18:48:20.213Z,26.83
2022-10-11T18:50:50.352Z,22.90
2022-10-11T18:53:20.346Z,20.70
2022-10-11T18:55:50.438Z,19.83
2022-10-11T18:58:20.548Z,17.00
2022-10-11T19:00:57.779Z,17.77
2022-10-11T19:03:34.978Z,18.80
2022-10-11T19:06:17.420Z,20.70
2022-10-11T19:08:56.376Z,21.13
2022-10-11T19:11:27.047Z,18.23
2022-10-11T19:14:03.344Z,17.57
2022-10-11T19:16:41.949Z,14.23
2022-10-11T19:19:16.069Z,9.53
2022-10-11T19:21:48.680Z,9.20
2022-10-11T19:24:20.437Z,7.97
2022-10-11T19:26:58.532Z,7.47
2022-10-11T19:29:34.478Z,7.40
2022-10-11T19:32:07.768Z,7.90
2022-10-11T19:34:40.211Z,8.33
2022-10-11T19:37:13.304Z,12.07
2022-10-11T19:39:43.707Z,10.60
2022-10-11T19:42:13.788Z,7.10
2022-10-11T19:44:46.679Z,6.80
2022-10-11T19:47:22.464Z,6.77
2022-10-11T19:49:52.735Z,6.80
2022-10-11T19:52:22.933Z,6.40
2022-10-11T19:54:56.313Z,6.37
2022-10-11T19:57:26.541Z,6.10
2022-10-11T19:59:56.937Z,6.83
2022-10-11T20:02:29.953Z,6.77
2022-10-11T20:05:03.206Z,8.00
2022-10-11T20:07:33.656Z,8.63
2022-10-11T20:10:04.233Z,8.13
2022-10-11T20:12:35.555Z,9.40
2022-10-11T20:15:13.744Z,16.90
2022-10-11T20:17:51.800Z,16.07
2022-10-11T20:20:22.454Z,9.27
2022-10-11T20:22:53.519Z,7.70
2022-10-11T20:25:29.148Z,7.10
2022-10-11T20:27:59.424Z,6.50
2022-10-11T20:30:32.035Z,6.30
2022-10-11T20:33:04.872Z,5.97
2022-10-11T20:35:36.543Z,6.10
2022-10-11T20:38:06.870Z,5.77
2022-10-11T20:40:43.993Z,6.47
2022-10-11T20:43:14.941Z,6.70
2022-10-11T20:45:45.239Z,6.60
2022-10-11T20:48:17.990Z,6.53
2022-10-11T20:50:48.237Z,6.87
2022-10-11T20:53:18.649Z,7.83
2022-10-11T20:55:49.480Z,7.33
2022-10-11T20:58:20.352Z,7.50
2022-10-11T21:00:51.839Z,7.40
2022-10-11T21:03:32.368Z,8.00
2022-10-11T21:06:05.555Z,7.37
2022-10-11T21:08:36.674Z,7.33
2022-10-11T21:11:08.914Z,7.63
2022-10-11T21:13:40.218Z,7.00
2022-10-11T21:16:18.290Z,9.10
2022-10-11T21:19:00.089Z,10.93
2022-10-11T21:21:32.451Z,9.57
2022-10-11T21:24:04.725Z,9.33
2022-10-11T21:26:37.372Z,9.83
2022-10-11T21:29:08.494Z,8.40
2022-10-11T21:31:40.845Z,9.53
2022-10-11T21:34:15.760Z,9.17
2022-10-11T21:36:46.592Z,7.87
2022-10-11T21:39:19.296Z,8.50
2022-10-11T21:41:49.523Z,9.33
2022-10-11T21:44:19.862Z,7.70
2022-10-11T21:47:08.448Z,7.67
2022-10-11T21:49:41.183Z,10.00
2022-10-11T21:52:14.221Z,9.23
2022-10-11T21:54:44.370Z,8.67
2022-10-11T21:57:14.763Z,8.23
2022-10-11T21:59:47.467Z,7.77
2022-10-11T22:02:17.685Z,8.73
2022-10-11T22:05:07.588Z,8.03
2022-10-11T22:07:41.361Z,8.13
2022-10-11T22:10:11.748Z,7.77
2022-10-11T22:12:42.217Z,7.30
2022-10-11T22:15:13.487Z,6.97
2022-10-11T22:17:43.712Z,6.90
2022-10-11T22:20:16.450Z,7.37
2022-10-11T22:22:49.737Z,7.43
2022-10-11T22:25:20.248Z,8.13
2022-10-11T22:27:53.209Z,8.97
2022-10-11T22:30:23.740Z,8.33
2022-10-11T22:32:57.656Z,7.50
2022-10-11T22:35:32.517Z,8.07
2022-10-11T22:38:07.806Z,9.73
2022-10-11T22:40:42.449Z,10.23
2022-10-11T22:43:15.650Z,9.37
2022-10-11T22:45:45.980Z,10.00
2022-10-11T22:48:16.509Z,9.73
2022-10-11T22:50:56.539Z,10.13
2022-10-11T22:53:26.647Z,8.77
2022-10-11T22:55:57.269Z,8.50
2022-10-11T22:58:27.798Z,7.47
2022-10-11T23:01:11.589Z,8.40
2022-10-11T23:03:45.093Z,9.03
2022-10-11T23:06:23.253Z,8.60
2022-10-11T23:08:56.284Z,8.53
2022-10-11T23:11:27.261Z,8.33
2022-10-11T23:14:00.771Z,9.67
2022-10-11T23:16:31.141Z,8.00
2022-10-11T23:19:01.522Z,7.50
2022-10-11T23:21:36.791Z,8.93
2022-10-11T23:24:07.689Z,8.93
2022-10-11T23:26:41.210Z,10.03
2022-10-11T23:29:13.485Z,9.37
2022-10-11T23:31:43.910Z,9.23
2022-10-11T23:34:14.340Z,9.10
2022-10-11T23:36:46.941Z,7.60
2022-10-11T23:39:17.782Z,7.93
2022-10-11T23:41:48.049Z,7.53
2022-10-11T23:44:18.407Z,6.70
2022-10-11T23:46:52.268Z,6.87
2022-10-11T23:49:22.834Z,7.40
2022-10-11T23:51:55.563Z,6.17
2022-10-11T23:54:25.695Z,7.10
2022-10-11T23:56:55.840Z,7.17
2022-10-11T23:59:26.180Z,6.77
